Time;durP1;ratioP1;P1;durP2;ratioP2;P2;SDS_P1;SDS_P2;PMS_P1;PMS_P2;Temp;Humidity;BMP_temperature;BMP_pressure;BME280_temperature;BME280_humidity;BME280_pressure;Samples;Min_cycle;Max_cycle;Signal;HPM_P1;HPM_P2
2021/12/28 00:01:24;;;;;;;34.38;4.90;;;;;;;9.12;100.00;97321.22;5007535;28;20015;-66
2021/12/28 00:03:51;;;;;;;33.95;4.15;;;;;;;9.16;100.00;97331.56;5018398;28;20018;-66
2021/12/28 00:06:17;;;;;;;34.38;4.85;;;;;;;9.17;100.00;97306.19;5024978;28;20321;-66
2021/12/28 00:08:44;;;;;;;39.70;4.63;;;;;;;9.26;100.00;97338.22;5025986;28;20025;-66
2021/12/28 00:11:10;;;;;;;30.60;3.92;;;;;;;9.33;100.00;97331.00;5022048;28;20077;-66
2021/12/28 00:13:37;;;;;;;45.17;5.50;;;;;;;9.33;100.00;97328.38;5006978;28;20018;-66
2021/12/28 00:18:35;;;;;;;38.58;4.95;;;;;;;9.43;100.00;97314.00;5020671;28;20029;-66
2021/12/28 00:21:03;;;;;;;21.67;3.83;;;;;;;9.48;100.00;97333.06;5006929;28;20037;-66
2021/12/28 00:23:37;;;;;;;34.30;5.03;;;;;;;9.42;100.00;97309.63;5008024;28;20064;-66
2021/12/28 00:26:04;;;;;;;30.48;3.67;;;;;;;9.45;100.00;97301.66;5014319;28;20053;-66
2021/12/28 00:28:30;;;;;;;33.60;5.00;;;;;;;9.42;100.00;97301.75;5007931;28;20073;-66
2021/12/28 00:30:56;;;;;;;22.55;3.78;;;;;;;9.41;100.00;97292.19;5025201;28;20017;-66
2021/12/28 00:33:24;;;;;;;30.33;4.10;;;;;;;9.41;100.00;97284.28;5025669;28;20317;-66
2021/12/28 00:35:50;;;;;;;25.10;3.92;;;;;;;9.34;100.00;97277.56;5016549;28;20190;-66
2021/12/28 00:38:21;;;;;;;26.92;4.35;;;;;;;9.39;100.00;97270.34;5006634;28;20223;-66
2021/12/28 00:40:48;;;;;;;35.80;4.07;;;;;;;9.47;100.00;97273.56;5022356;28;20021;-66
2021/12/28 00:43:14;;;;;;;33.90;4.22;;;;;;;9.42;100.00;97259.75;5025685;28;20136;-66
2021/12/28 00:45:40;;;;;;;21.55;4.13;;;;;;;9.43;100.00;97253.59;5019026;28;20326;-66
2021/12/28 00:48:06;;;;;;;23.13;3.55;;;;;;;9.42;99.30;97263.22;5006527;28;20322;-66
2021/12/28 00:50:31;;;;;;;32.58;4.05;;;;;;;9.38;99.06;97252.91;5006349;28;20022;-66
2021/12/28 00:52:57;;;;;;;26.73;4.07;;;;;;;9.36;99.05;97244.25;5006297;28;20026;-66
2021/12/28 00:55:24;;;;;;;22.90;3.75;;;;;;;9.25;99.87;97246.38;5020612;28;20022;-66
2021/12/28 00:57:49;;;;;;;21.45;3.13;;;;;;;9.22;99.40;97230.75;5006504;28;20256;-66
2021/12/28 01:00:19;;;;;;;22.33;3.30;;;;;;;9.18;99.35;97218.66;5006234;28;20030;-66
2021/12/28 01:02:46;;;;;;;29.85;3.72;;;;;;;9.14;99.90;97217.06;5011665;28;20072;-66
2021/12/28 01:05:11;;;;;;;25.90;3.58;;;;;;;9.17;100.00;97223.03;5020702;28;20021;-66
2021/12/28 01:07:37;;;;;;;27.60;5.20;;;;;;;9.11;99.93;97218.00;5013586;28;20021;-66
2021/12/28 01:10:06;;;;;;;24.02;3.60;;;;;;;8.99;100.00;97212.34;5025126;28;20363;-66
2021/12/28 01:12:31;;;;;;;17.45;2.88;;;;;;;9.04;100.00;97210.41;5024981;28;20029;-66
2021/12/28 01:14:57;;;;;;;20.20;2.78;;;;;;;9.04;100.00;97210.41;5023409;28;20026;-66
2021/12/28 01:17:22;;;;;;;18.77;2.90;;;;;;;9.03;100.00;97208.69;5021371;28;20022;-66
2021/12/28 01:19:51;;;;;;;30.88;4.75;;;;;;;8.99;100.00;97209.72;5005927;28;20226;-66
2021/12/28 01:22:16;;;;;;;21.80;2.80;;;;;;;9.07;100.00;97210.28;5013701;28;20018;-66
2021/12/28 01:24:42;;;;;;;18.67;2.53;;;;;;;9.13;100.00;97199.56;5010460;28;20092;-66
2021/12/28 01:27:08;;;;;;;22.70;2.60;;;;;;;9.08;100.00;97206.78;5024559;28;20216;-66
2021/12/28 01:29:33;;;;;;;11.98;2.42;;;;;;;9.12;100.00;97205.75;5024737;28;20018;-66
2021/12/28 01:31:59;;;;;;;25.38;3.13;;;;;;;9.12;99.96;97203.97;5024617;28;20337;-66
2021/12/28 01:34:25;;;;;;;26.15;3.40;;;;;;;9.22;99.28;97202.72;5021965;28;20026;-66
2021/12/28 01:36:52;;;;;;;18.20;3.03;;;;;;;9.22;99.31;97205.34;5019482;28;20029;-66
2021/12/28 01:39:18;;;;;;;17.58;2.83;;;;;;;9.33;98.70;97197.09;5024746;28;20018;-66
2021/12/28 01:41:43;;;;;;;19.02;3.05;;;;;;;9.30;98.21;97187.53;5012774;28;20065;-66
2021/12/28 01:44:11;;;;;;;21.55;2.75;;;;;;;9.28;98.68;97183.25;5005422;28;20022;-66
2021/12/28 01:46:37;;;;;;;23.50;3.47;;;;;;;9.29;98.41;97184.97;5013088;28;20102;-66
2021/12/28 01:49:04;;;;;;;11.18;2.53;;;;;;;9.31;98.58;97175.28;5005299;28;20073;-66
2021/12/28 01:51:32;;;;;;;18.52;2.40;;;;;;;9.31;98.40;97183.16;5022741;28;20033;-66
2021/12/28 01:53:59;;;;;;;20.60;3.08;;;;;;;9.32;98.17;97174.34;5011680;28;20205;-66
2021/12/28 01:56:34;;;;;;;24.38;3.53;;;;;;;9.37;98.11;97177.69;5022590;28;20190;-66
2021/12/28 01:59:00;;;;;;;18.60;2.50;;;;;;;9.36;98.30;97160.22;5024217;28;20032;-66
2021/12/28 02:01:27;;;;;;;21.85;3.13;;;;;;;9.40;97.98;97157.38;5024093;28;20036;-66
2021/12/28 02:03:53;;;;;;;17.92;3.05;;;;;;;9.34;98.80;97157.66;5023060;28;20030;-66
2021/12/28 02:06:23;;;;;;;20.77;3.30;;;;;;;9.29;99.33;97156.97;5023207;28;20033;-66
2021/12/28 02:08:48;;;;;;;21.52;3.47;;;;;;;9.24;99.55;97150.19;5013669;28;20336;-66
2021/12/28 02:11:14;;;;;;;26.90;3.28;;;;;;;9.20;99.75;97153.84;5004944;28;20018;-66
2021/12/28 02:13:41;;;;;;;29.45;4.05;;;;;;;9.14;99.39;97144.41;5004722;28;20026;-66
2021/12/28 02:16:06;;;;;;;26.13;3.05;;;;;;;9.09;99.94;97135.00;5023920;28;20025;-66
2021/12/28 02:18:34;;;;;;;24.13;3.05;;;;;;;9.06;100.00;97142.97;5007816;28;20089;-66
2021/12/28 02:21:01;;;;;;;25.00;3.55;;;;;;;9.03;100.00;97145.72;5004700;28;20094;-66
2021/12/28 02:23:27;;;;;;;28.80;4.10;;;;;;;9.00;100.00;97151.06;5004938;28;20253;-66
2021/12/28 02:25:53;;;;;;;21.23;3.30;;;;;;;8.99;100.00;97145.00;5017707;28;20041;-66
2021/12/28 02:28:20;;;;;;;27.23;3.95;;;;;;;8.97;100.00;97138.94;5023805;28;20025;-66
2021/12/28 02:30:49;;;;;;;27.85;3.00;;;;;;;8.94;100.00;97138.16;5024009;28;20014;-66
2021/12/28 02:33:16;;;;;;;36.30;4.28;;;;;;;8.91;100.00;97140.91;5023637;28;20052;-66
2021/12/28 02:35:44;;;;;;;26.00;3.38;;;;;;;8.85;100.00;97141.16;5012542;28;20021;-66
2021/12/28 02:38:10;;;;;;;23.13;3.88;;;;;;;8.80;100.00;97139.53;5018898;28;20210;-66
2021/12/28 02:40:38;;;;;;;18.20;3.17;;;;;;;8.82;100.00;97126.34;5023404;28;20072;-66
2021/12/28 02:43:05;;;;;;;17.98;3.30;;;;;;;8.89;100.00;97129.63;5023635;28;20037;-66
2021/12/28 02:45:35;;;;;;;30.77;4.28;;;;;;;8.78;100.00;97123.00;5014215;28;20022;-66
2021/12/28 02:48:01;;;;;;;25.23;3.88;;;;;;;8.72;100.00;97115.38;5004506;28;20320;-66
2021/12/28 02:50:31;;;;;;;29.55;5.10;;;;;;;8.64;100.00;97111.31;5004457;28;20026;-66
2021/12/28 02:52:57;;;;;;;17.98;3.15;;;;;;;8.60;100.00;97109.69;5016209;28;20022;-66
2021/12/28 02:55:26;;;;;;;19.48;3.40;;;;;;;8.62;100.00;97107.88;5023746;28;20101;-66
2021/12/28 02:58:01;;;;;;;21.58;4.43;;;;;;;8.56;100.00;97098.47;5024013;28;20045;-66
2021/12/28 03:00:48;;;;;;;14.73;3.80;;;;;;;8.55;100.00;97096.72;5024163;28;20271;-66
2021/12/28 03:03:13;;;;;;;19.92;3.72;;;;;;;8.51;100.00;97089.91;5023897;28;20022;-66
2021/12/28 03:05:41;;;;;;;21.63;4.03;;;;;;;8.53;100.00;97085.47;5023950;28;20357;-66
2021/12/28 03:08:07;;;;;;;24.05;3.80;;;;;;;8.50;100.00;97077.72;5005607;28;20022;-66
2021/12/28 03:10:35;;;;;;;11.98;3.22;;;;;;;8.46;100.00;97068.25;5004499;28;20245;-66
2021/12/28 03:13:03;;;;;;;12.32;3.67;;;;;;;8.45;100.00;97070.94;5004246;28;20044;-66
2021/12/28 03:15:28;;;;;;;24.08;4.00;;;;;;;8.44;100.00;97072.69;5004277;28;20014;-66
2021/12/28 03:17:54;;;;;;;19.83;4.32;;;;;;;8.41;100.00;97062.31;5020974;28;20316;-66
2021/12/28 03:20:19;;;;;;;18.50;3.78;;;;;;;8.38;100.00;97057.16;5026928;28;20018;-66
2021/12/28 03:22:44;;;;;;;25.27;4.45;;;;;;;8.45;100.00;97053.41;5027144;28;20317;-66
2021/12/28 03:25:10;;;;;;;23.42;4.00;;;;;;;8.42;100.00;97048.28;5018421;28;20070;-66
2021/12/28 03:27:36;;;;;;;13.57;3.42;;;;;;;8.44;100.00;97035.97;5020108;28;20018;-66
2021/12/28 03:30:06;;;;;;;17.48;3.45;;;;;;;8.39;100.00;97032.66;5027027;28;20037;-66
2021/12/28 03:32:31;;;;;;;13.32;3.13;;;;;;;8.42;100.00;97034.34;5025546;28;20041;-66
2021/12/28 03:34:56;;;;;;;24.42;4.10;;;;;;;8.37;100.00;97037.13;5026900;28;20336;-66
2021/12/28 03:37:22;;;;;;;15.10;3.53;;;;;;;8.40;100.00;97039.63;5010064;28;20026;-66
2021/12/28 03:39:47;;;;;;;9.80;2.83;;;;;;;8.45;100.00;97031.59;5020111;28;20026;-66
2021/12/28 03:42:13;;;;;;;12.30;3.30;;;;;;;8.46;100.00;97013.19;5026530;28;20194;-66
2021/12/28 03:44:38;;;;;;;9.75;2.35;;;;;;;8.49;100.00;97039.25;5026739;28;20085;-66
2021/12/28 03:47:06;;;;;;;5.40;2.25;;;;;;;8.51;100.00;97005.13;5009580;28;20030;-66
2021/12/28 03:49:32;;;;;;;14.27;2.53;;;;;;;8.50;100.00;97009.53;5011507;28;20060;-66
2021/12/28 03:51:57;;;;;;;9.15;2.17;;;;;;;8.48;100.00;97023.63;5026512;28;20092;-66
2021/12/28 03:54:22;;;;;;;13.52;2.38;;;;;;;8.50;100.00;97042.75;5026317;28;20085;-66
2021/12/28 03:56:48;;;;;;;9.63;2.55;;;;;;;8.51;100.00;97068.91;5022941;28;20029;-66
2021/12/28 03:59:13;;;;;;;18.40;2.70;;;;;;;8.47;100.00;97030.63;5013097;28;20049;-66
2021/12/28 04:01:39;;;;;;;11.30;2.63;;;;;;;8.47;100.00;97014.91;5026181;28;20309;-66
2021/12/28 04:04:04;;;;;;;11.23;2.13;;;;;;;8.52;100.00;97043.56;5025035;28;20013;-66
2021/12/28 04:06:31;;;;;;;12.95;2.75;;;;;;;8.46;100.00;97049.91;5026065;28;20209;-66
2021/12/28 04:08:58;;;;;;;9.15;2.17;;;;;;;8.49;100.00;97013.06;5020732;28;20026;-66
2021/12/28 04:13:49;;;;;;;9.77;2.05;;;;;;;8.53;100.00;97019.91;5007045;28;20025;-66
2021/12/28 04:16:17;;;;;;;7.10;2.10;;;;;;;8.52;100.00;97012.09;5007051;28;20018;-66
2021/12/28 04:18:42;;;;;;;6.47;1.38;;;;;;;8.51;100.00;97020.84;5011024;28;20041;-66
2021/12/28 04:21:10;;;;;;;5.20;1.65;;;;;;;8.54;100.00;97016.38;5007023;28;20029;-66
2021/12/28 04:23:36;;;;;;;8.23;1.77;;;;;;;8.57;100.00;97013.63;5006873;28;20205;-66
2021/12/28 04:26:02;;;;;;;8.82;1.65;;;;;;;8.58;100.00;97017.97;5006732;28;20229;-66
2021/12/28 04:28:27;;;;;;;5.43;1.70;;;;;;;8.57;100.00;97016.25;5007988;28;20018;-66
2021/12/28 04:30:53;;;;;;;5.75;1.20;;;;;;;8.56;100.00;97040.78;5005728;28;20026;-66
2021/12/28 04:33:18;;;;;;;3.90;1.52;;;;;;;8.58;100.00;97045.97;5006580;28;20029;-66
2021/12/28 04:35:44;;;;;;;6.97;1.58;;;;;;;8.54;100.00;97005.03;5006621;28;20022;-66
2021/12/28 04:38:09;;;;;;;5.30;1.30;;;;;;;8.59;100.00;97027.56;5006470;28;20072;-66
2021/12/28 04:40:35;;;;;;;4.88;1.45;;;;;;;8.57;100.00;97016.25;5006569;28;20018;-66
2021/12/28 04:43:03;;;;;;;6.85;1.27;;;;;;;8.51;100.00;96990.25;5006525;28;20022;-66
2021/12/28 04:45:29;;;;;;;9.63;1.52;;;;;;;8.53;100.00;96959.59;5006490;28;20051;-66
2021/12/28 04:47:55;;;;;;;13.10;2.08;;;;;;;8.44;100.00;96973.06;5008866;28;20033;-66
2021/12/28 04:50:20;;;;;;;11.55;2.30;;;;;;;8.42;100.00;96958.31;5025441;28;20022;-67
2021/12/28 04:52:46;;;;;;;8.18;1.45;;;;;;;8.41;100.00;96961.81;5025910;28;20026;-67
2021/12/28 04:55:15;;;;;;;6.57;1.90;;;;;;;8.36;100.00;96975.09;5009565;28;20033;-67
2021/12/28 04:57:42;;;;;;;9.07;1.80;;;;;;;8.34;100.00;96976.94;5006713;28;20026;-67
2021/12/28 05:00:14;;;;;;;15.25;1.75;;;;;;;8.33;100.00;96963.88;5018635;28;20305;-67
2021/12/28 05:02:39;;;;;;;13.38;2.38;;;;;;;8.28;100.00;96966.69;5025580;28;20316;-67
2021/12/28 05:05:06;;;;;;;8.07;1.95;;;;;;;8.24;100.00;96978.19;5024404;28;20095;-67
2021/12/28 05:07:31;;;;;;;6.68;1.77;;;;;;;8.24;100.00;96978.19;5025664;28;20348;-67
2021/12/28 05:09:58;;;;;;;9.02;1.75;;;;;;;8.30;100.00;96980.59;5022108;28;20084;-64
2021/12/28 05:12:25;;;;;;;8.18;1.85;;;;;;;8.27;100.00;96970.22;5025351;28;20026;-65
2021/12/28 05:14:50;;;;;;;12.82;2.30;;;;;;;8.33;100.00;96979.63;5025540;28;20033;-65
2021/12/28 05:17:16;;;;;;;6.65;2.05;;;;;;;8.36;100.00;96975.09;5025500;28;20092;-65
2021/12/28 05:19:41;;;;;;;6.07;1.70;;;;;;;8.32;100.00;96965.66;5025474;28;20042;-65
2021/12/28 05:22:08;;;;;;;5.00;1.48;;;;;;;8.34;100.00;96979.56;5025427;28;20026;-65
2021/12/28 05:24:35;;;;;;;3.00;1.30;;;;;;;8.38;100.00;96977.66;5025032;28;20073;-65
2021/12/28 05:27:00;;;;;;;5.05;1.83;;;;;;;8.34;100.00;96976.94;5025335;28;20033;-65
2021/12/28 05:29:26;;;;;;;2.80;1.30;;;;;;;8.37;100.00;96976.81;5025285;28;20072;-65
2021/12/28 05:31:51;;;;;;;5.25;1.15;;;;;;;8.37;100.00;96995.19;5025168;28;20030;-65
2021/12/28 05:34:17;;;;;;;1.92;1.20;;;;;;;8.32;100.00;96999.72;5025171;28;20221;-65
2021/12/28 05:36:42;;;;;;;2.88;1.20;;;;;;;8.41;100.00;96973.16;5025392;28;20045;-65
2021/12/28 05:39:08;;;;;;;6.40;1.60;;;;;;;8.43;100.00;96968.75;5025379;28;20313;-65
2021/12/28 05:41:34;;;;;;;4.25;0.98;;;;;;;8.40;100.00;96961.00;5024823;28;20029;-65
2021/12/28 05:43:59;;;;;;;6.70;1.30;;;;;;;8.36;100.00;96964.59;5025115;28;20026;-65
2021/12/28 05:46:24;;;;;;;4.65;1.00;;;;;;;8.43;100.00;97002.81;5024970;28;20088;-65
2021/12/28 05:48:50;;;;;;;4.22;0.90;;;;;;;8.57;100.00;96984.78;5024964;28;20313;-65
2021/12/28 05:51:16;;;;;;;5.78;1.55;;;;;;;8.63;100.00;96963.59;5025167;28;20252;-65
2021/12/28 05:53:41;;;;;;;11.60;1.50;;;;;;;8.69;100.00;96993.97;5024819;28;20080;-65
2021/12/28 05:56:07;;;;;;;4.75;0.90;;;;;;;8.75;100.00;96988.50;5024791;28;20033;-65
2021/12/28 05:58:32;;;;;;;1.00;0.68;;;;;;;8.82;100.00;96978.63;5024798;28;20030;-65
2021/12/28 06:00:58;;;;;;;3.03;0.80;;;;;;;8.91;100.00;96973.88;5025005;28;20037;-65
2021/12/28 06:03:23;;;;;;;1.65;0.63;;;;;;;8.88;100.00;97001.97;5024684;28;20022;-65
2021/12/28 06:05:49;;;;;;;3.28;1.02;;;;;;;8.83;100.00;96997.78;5023284;28;20030;-65
2021/12/28 06:08:14;;;;;;;1.33;0.63;;;;;;;9.12;100.00;96961.66;5024150;28;20036;-65
2021/12/28 06:10:40;;;;;;;3.47;0.90;;;;;;;9.11;100.00;96959.97;5024817;28;20026;-65
2021/12/28 06:13:06;;;;;;;2.08;0.65;;;;;;;9.20;100.00;96964.84;5024500;28;20221;-65
2021/12/28 06:15:31;;;;;;;0.70;0.40;;;;;;;9.14;100.00;96954.59;5024604;28;20034;-65
2021/12/28 06:17:57;;;;;;;1.38;0.50;;;;;;;9.19;100.00;96957.88;5024767;28;20022;-65
2021/12/28 06:20:22;;;;;;;0.68;0.52;;;;;;;9.36;100.00;96993.03;5024466;28;20025;-65
2021/12/28 06:22:48;;;;;;;3.35;0.60;;;;;;;9.38;100.00;96957.06;5024429;28;20080;-65
2021/12/28 06:25:13;;;;;;;0.50;0.40;;;;;;;9.52;100.00;96961.75;5024143;28;20168;-65
2021/12/28 06:27:39;;;;;;;2.03;0.40;;;;;;;9.51;100.00;96991.53;5024529;28;20048;-65
2021/12/28 06:30:05;;;;;;;0.40;0.32;;;;;;;9.49;100.00;96959.25;5024321;28;20076;-65
2021/12/28 06:32:30;;;;;;;0.85;0.50;;;;;;;9.46;100.00;96946.25;5024214;28;20030;-65
2021/12/28 06:34:56;;;;;;;3.75;0.38;;;;;;;9.54;100.00;96954.66;5024222;28;20080;-65
2021/12/28 06:37:21;;;;;;;3.33;0.50;;;;;;;9.47;100.00;96995.22;5024218;28;20033;-65
2021/12/28 06:39:47;;;;;;;1.20;0.32;;;;;;;9.41;100.00;96977.09;5024210;28;20026;-65
2021/12/28 06:42:12;;;;;;;0.68;0.35;;;;;;;9.35;100.00;96969.47;5024317;28;20205;-65
2021/12/28 06:44:40;;;;;;;4.30;0.70;;;;;;;9.39;100.00;96971.91;5024246;28;20033;-65
2021/12/28 06:47:05;;;;;;;0.73;0.50;;;;;;;9.44;100.00;97005.84;5024399;28;20030;-65
2021/12/28 06:49:31;;;;;;;1.20;0.60;;;;;;;9.41;100.00;96969.22;5024100;28;20025;-65
2021/12/28 06:51:56;;;;;;;1.00;0.40;;;;;;;9.42;100.00;97028.69;5024031;28;20025;-65
2021/12/28 06:54:22;;;;;;;2.05;0.63;;;;;;;9.32;100.00;97001.94;5027602;28;20037;-65
2021/12/28 06:56:47;;;;;;;2.22;0.50;;;;;;;9.46;100.00;97020.63;5028169;28;20053;-65
2021/12/28 06:59:12;;;;;;;4.00;0.50;;;;;;;9.49;100.00;97028.38;5028093;28;20041;-65
2021/12/28 07:01:38;;;;;;;3.70;0.43;;;;;;;9.44;100.00;96984.84;5028001;28;20049;-65
2021/12/28 07:04:03;;;;;;;1.52;0.57;;;;;;;9.51;100.00;96991.53;5028087;28;20013;-65
2021/12/28 07:06:29;;;;;;;1.23;0.50;;;;;;;9.44;100.00;97021.59;5027971;28;20321;-65
2021/12/28 07:08:54;;;;;;;2.70;0.63;;;;;;;9.39;100.00;97018.28;5027882;28;20028;-65
2021/12/28 07:11:20;;;;;;;1.40;0.50;;;;;;;9.40;100.00;96993.78;5027908;28;20056;-65
2021/12/28 07:13:46;;;;;;;1.95;0.60;;;;;;;9.52;100.00;96993.28;5028040;28;20344;-65
2021/12/28 07:16:12;;;;;;;0.68;0.50;;;;;;;9.43;100.00;96996.28;5027812;28;20080;-65
2021/12/28 07:18:38;;;;;;;2.33;0.60;;;;;;;9.47;100.00;97003.97;5027697;28;20024;-65
2021/12/28 07:21:05;;;;;;;0.77;0.50;;;;;;;9.57;100.00;96996.53;5027699;28;20022;-65
2021/12/28 07:23:31;;;;;;;0.55;0.52;;;;;;;9.58;100.00;97016.63;5027712;28;20021;-65
2021/12/28 07:25:56;;;;;;;2.17;0.60;;;;;;;9.54;100.00;96996.66;5027471;28;20038;-65
2021/12/28 07:28:24;;;;;;;4.55;0.80;;;;;;;9.53;100.00;97008.09;5027541;28;20022;-65
2021/12/28 07:30:50;;;;;;;1.27;0.60;;;;;;;9.56;100.00;97026.38;5027519;28;20229;-65
2021/12/28 07:33:15;;;;;;;0.57;0.50;;;;;;;9.51;100.00;97028.31;5027418;28;20032;-65
2021/12/28 07:35:41;;;;;;;1.75;0.43;;;;;;;9.57;100.00;97022.81;5027477;28;20029;-65
2021/12/28 07:38:06;;;;;;;1.58;0.60;;;;;;;9.68;100.00;97039.84;5027393;28;20367;-65
2021/12/28 07:40:32;;;;;;;1.15;0.50;;;;;;;9.70;100.00;97052.91;5027370;28;20026;-65
2021/12/28 07:42:58;;;;;;;1.70;0.68;;;;;;;9.67;100.00;97058.28;5027307;28;20021;-65
2021/12/28 07:45:23;;;;;;;2.10;0.57;;;;;;;9.71;100.00;97059.91;5027247;28;20029;-65
2021/12/28 07:47:50;;;;;;;0.77;0.35;;;;;;;9.67;100.00;97063.53;5027209;28;20047;-65
2021/12/28 07:50:17;;;;;;;1.20;0.47;;;;;;;9.69;100.00;97069.59;5027170;28;20027;-65
2021/12/28 07:52:44;;;;;;;1.38;0.60;;;;;;;9.75;100.00;97100.88;5027008;28;20026;-65
2021/12/28 07:55:10;;;;;;;2.63;0.77;;;;;;;9.78;100.00;97085.81;5027033;28;20260;-65
2021/12/28 07:57:37;;;;;;;2.90;0.52;;;;;;;9.79;100.00;97110.34;5027270;28;20025;-65
2021/12/28 08:00:09;;;;;;;0.40;0.40;;;;;;;9.81;100.00;97079.63;5027023;28;20021;-65
2021/12/28 08:02:34;;;;;;;0.77;0.63;;;;;;;9.82;100.00;97084.81;5018347;28;20045;-65
2021/12/28 08:05:00;;;;;;;4.10;0.80;;;;;;;9.84;100.00;97087.38;5016457;28;20049;-66
2021/12/28 08:07:25;;;;;;;0.60;0.60;;;;;;;9.85;100.00;97081.19;5017415;28;20044;-66
2021/12/28 08:09:50;;;;;;;2.40;0.73;;;;;;;9.91;100.00;97087.03;5015542;28;20026;-66
2021/12/28 08:12:16;;;;;;;2.28;0.80;;;;;;;9.94;100.00;97091.31;5017080;28;20018;-65
2021/12/28 08:14:42;;;;;;;0.35;0.35;;;;;;;9.96;100.00;97121.88;5014550;28;20085;-65
2021/12/28 08:17:08;;;;;;;1.25;0.70;;;;;;;9.93;100.00;97126.38;5023216;28;20029;-65
2021/12/28 08:19:33;;;;;;;2.42;0.65;;;;;;;9.89;100.00;97167.72;5026595;28;20025;-65
2021/12/28 08:21:59;;;;;;;1.98;0.75;;;;;;;9.95;100.00;97167.47;5026525;28;20026;-65
2021/12/28 08:24:24;;;;;;;5.43;0.65;;;;;;;9.97;100.00;97151.66;5026308;28;20105;-65
2021/12/28 08:26:49;;;;;;;1.05;0.77;;;;;;;9.98;100.00;97140.22;5026550;28;20022;-65
2021/12/28 08:29:15;;;;;;;1.48;0.95;;;;;;;10.00;100.00;97149.72;5025636;28;20085;-65
2021/12/28 08:31:40;;;;;;;1.35;0.75;;;;;;;9.99;100.00;97126.13;5025584;28;20049;-65
2021/12/28 08:34:06;;;;;;;1.15;0.82;;;;;;;10.02;100.00;97094.47;5025381;28;20033;-65
2021/12/28 08:36:31;;;;;;;1.25;1.02;;;;;;;10.02;100.00;97116.38;5025626;28;20018;-65
2021/12/28 08:38:57;;;;;;;7.15;1.15;;;;;;;9.99;100.00;97126.13;5025591;28;20025;-65
2021/12/28 08:41:22;;;;;;;2.28;1.42;;;;;;;9.96;100.00;97099.97;5025302;28;20332;-65
2021/12/28 08:43:48;;;;;;;2.53;1.50;;;;;;;10.00;100.00;97091.06;5024853;28;20137;-66
2021/12/28 08:46:14;;;;;;;3.45;1.70;;;;;;;10.02;100.00;97094.47;5025474;28;20033;-65
2021/12/28 08:48:40;;;;;;;2.25;1.70;;;;;;;10.10;100.00;97095.06;5025111;28;20088;-65
2021/12/28 08:51:07;;;;;;;2.50;1.10;;;;;;;10.21;100.00;97122.59;5025095;28;20032;-65
2021/12/28 08:53:32;;;;;;;1.15;1.05;;;;;;;10.26;100.00;97093.50;5024952;28;20034;-65
2021/12/28 08:55:58;;;;;;;2.38;1.33;;;;;;;10.26;100.00;97096.13;5025106;28;20029;-66
2021/12/28 08:58:24;;;;;;;1.52;0.90;;;;;;;10.30;100.00;97116.09;5023654;28;20340;-66
2021/12/28 09:00:49;;;;;;;3.20;1.25;;;;;;;10.30;100.00;97084.56;5031081;28;20026;-66
2021/12/28 09:03:14;;;;;;;1.83;0.80;;;;;;;10.40;100.00;97085.84;5040729;28;20028;-65
2021/12/28 09:05:40;;;;;;;2.17;0.88;;;;;;;10.43;100.00;97101.50;5043789;28;20251;-65
2021/12/28 09:08:09;;;;;;;4.65;1.20;;;;;;;10.42;100.00;97100.69;5025035;28;20032;-65
2021/12/28 09:10:35;;;;;;;2.72;0.80;;;;;;;10.34;100.00;97108.03;5023978;28;20024;-65
2021/12/28 09:13:02;;;;;;;1.52;0.98;;;;;;;10.28;100.00;97108.28;5021764;28;20022;-65
2021/12/28 09:15:28;;;;;;;1.85;1.10;;;;;;;10.36;100.00;97105.31;5024092;28;20079;-65
2021/12/28 09:17:54;;;;;;;2.25;0.80;;;;;;;10.33;100.00;97115.97;5024575;28;20348;-65
2021/12/28 09:20:22;;;;;;;3.55;1.08;;;;;;;10.33;100.00;97147.53;5024511;28;20092;-65
2021/12/28 09:22:51;;;;;;;3.20;1.33;;;;;;;10.36;100.00;97115.84;5024366;28;20077;-65
2021/12/28 09:25:17;;;;;;;2.00;0.98;;;;;;;10.33;100.00;97115.97;5024202;28;20337;-65
2021/12/28 09:27:43;;;;;;;4.45;1.38;;;;;;;10.30;100.00;97124.00;5024350;28;20026;-65
2021/12/28 09:30:09;;;;;;;2.53;1.23;;;;;;;10.27;100.00;97155.66;5024348;28;20088;-65
2021/12/28 09:32:35;;;;;;;4.60;1.60;;;;;;;10.30;100.00;97179.22;5024210;28;20064;-65
2021/12/28 09:35:00;;;;;;;3.33;1.30;;;;;;;10.33;100.00;97211.50;5024137;28;20022;-65
2021/12/28 09:37:26;;;;;;;4.07;1.55;;;;;;;10.33;100.00;97182.59;5024241;28;20025;-65
2021/12/28 09:39:51;;;;;;;6.32;2.10;;;;;;;10.35;100.00;97198.31;5024157;28;20048;-65
2021/12/28 09:42:18;;;;;;;4.25;1.80;;;;;;;10.35;100.00;97225.44;5024149;28;20033;-65
2021/12/28 09:44:49;;;;;;;3.95;1.42;;;;;;;10.34;100.00;97228.13;5024098;28;20132;-65
2021/12/28 09:47:16;;;;;;;2.15;1.45;;;;;;;10.37;100.00;97206.97;5016536;28;20018;-65
2021/12/28 09:49:42;;;;;;;8.95;1.88;;;;;;;10.34;100.00;97220.22;5014084;28;20090;-65
2021/12/28 09:52:07;;;;;;;3.97;1.52;;;;;;;10.40;100.00;97217.34;5011549;28;20392;-65
2021/12/28 09:54:33;;;;;;;6.40;2.10;;;;;;;10.46;100.00;97251.28;5023933;28;20022;-65
2021/12/28 09:57:00;;;;;;;3.47;1.88;;;;;;;10.45;100.00;97221.50;5023814;28;20025;-65
2021/12/28 09:59:27;;;;;;;1.52;1.30;;;;;;;10.53;100.00;97260.66;5024111;28;20026;-65
2021/12/28 10:01:53;;;;;;;6.30;1.30;;;;;;;10.56;100.00;97263.16;5023391;28;20081;-65
2021/12/28 10:04:19;;;;;;;1.92;1.05;;;;;;;10.57;100.00;97251.72;5023735;28;20033;-65
2021/12/28 10:06:44;;;;;;;5.05;0.80;;;;;;;10.57;100.00;97262.25;5023741;28;20030;-65
2021/12/28 10:09:12;;;;;;;1.15;0.70;;;;;;;10.58;100.00;97254.31;5024243;28;20209;-65
2021/12/28 10:11:53;;;;;;;0.70;0.47;;;;;;;10.60;100.00;97267.41;5023678;28;20253;-65
2021/12/28 10:14:25;;;;;;;0.70;0.60;;;;;;;10.60;100.00;97251.59;5023174;28;20030;-65
2021/12/28 10:16:56;;;;;;;0.90;0.85;;;;;;;10.64;100.00;97245.28;5023604;28;20269;-65
2021/12/28 10:19:31;;;;;;;3.60;0.93;;;;;;;10.77;100.00;97252.63;5023490;28;20278;-65
2021/12/28 10:21:56;;;;;;;1.15;0.98;;;;;;;10.83;100.00;97235.72;5023450;28;20081;-65
2021/12/28 10:24:34;;;;;;;2.03;0.90;;;;;;;10.88;100.00;97228.44;5023290;28;20045;-65
2021/12/28 10:27:26;;;;;;;1.63;0.68;;;;;;;10.97;100.00;97219.34;5022770;28;20085;-65
2021/12/28 10:29:53;;;;;;;4.35;1.58;;;;;;;10.94;100.00;97210.63;5020251;28;20402;-65
2021/12/28 10:32:19;;;;;;;6.78;2.30;;;;;;;10.98;100.00;97216.59;5023284;28;20030;-65
2021/12/28 10:34:50;;;;;;;9.88;2.75;;;;;;;10.98;100.00;97221.88;5022098;28;20044;-65
2021/12/28 10:37:18;;;;;;;7.43;2.03;;;;;;;10.97;100.00;97220.16;5021194;28;20034;-65
2021/12/28 10:39:49;;;;;;;3.75;1.90;;;;;;;10.94;100.00;97225.56;5023260;28;20092;-65
2021/12/28 10:42:41;;;;;;;8.88;3.17;;;;;;;10.91;100.00;97216.03;5022961;28;20085;-65
2021/12/28 10:45:12;;;;;;;4.93;1.98;;;;;;;10.94;100.00;97225.56;5023236;28;20045;-65
2021/12/28 10:47:38;;;;;;;4.07;1.50;;;;;;;10.99;100.00;97215.69;5023484;28;20336;-65
2021/12/28 10:50:31;;;;;;;2.38;1.35;;;;;;;11.01;100.00;97221.72;5023165;28;20025;-65
2021/12/28 10:53:08;;;;;;;5.85;1.40;;;;;;;11.03;100.00;97214.63;5022877;28;20081;-65
2021/12/28 10:55:34;;;;;;;5.53;1.20;;;;;;;11.03;100.00;97214.63;5022787;28;20026;-65
2021/12/28 10:58:02;;;;;;;3.45;1.10;;;;;;;11.05;100.00;97212.81;5022955;28;20026;-65
2021/12/28 11:00:31;;;;;;;4.05;1.23;;;;;;;10.99;100.00;97215.69;5023333;28;20213;-65
2021/12/28 11:03:12;;;;;;;2.15;0.68;;;;;;;10.96;100.00;97207.94;5021305;28;20021;-65
2021/12/28 11:05:37;;;;;;;1.52;0.60;;;;;;;11.00;100.00;97209.50;5013872;28;20032;-65
2021/12/28 11:08:07;;;;;;;2.50;0.60;;;;;;;11.06;100.00;97203.97;5013132;28;20085;-65
2021/12/28 11:10:34;;;;;;;0.75;0.50;;;;;;;10.97;100.00;97198.28;5014742;28;20029;-65
2021/12/28 11:13:00;;;;;;;5.85;1.05;;;;;;;10.93;100.00;97202.81;5012881;28;20089;-65
2021/12/28 11:15:26;;;;;;;3.60;0.93;;;;;;;11.05;100.00;97197.00;5011698;28;20191;-65
2021/12/28 11:17:52;;;;;;;4.63;1.05;;;;;;;11.01;100.00;97195.41;5013388;28;20077;-65
2021/12/28 11:20:30;;;;;;;3.15;1.00;;;;;;;11.00;100.00;97198.97;5012214;28;20042;-65
2021/12/28 11:23:12;;;;;;;3.97;0.85;;;;;;;11.01;100.00;97198.03;5019695;28;20029;-65
2021/12/28 11:25:38;;;;;;;1.92;0.73;;;;;;;11.02;100.00;97197.16;5010884;28;20233;-65
2021/12/28 11:28:15;;;;;;;3.45;1.27;;;;;;;11.03;100.00;97196.22;5011260;28;20055;-65
2021/12/28 11:30:59;;;;;;;1.50;0.80;;;;;;;11.03;100.00;97188.31;5019117;28;20022;-65
2021/12/28 11:33:24;;;;;;;1.90;0.88;;;;;;;11.02;100.00;97188.38;5022310;28;20025;-65